createdAt,value
2023-03-16T00:02:49.189Z,17.20
2023-03-16T00:05:54.181Z,17.21
2023-03-16T00:08:57.433Z,17.04
2023-03-16T00:12:04.418Z,17.03
2023-03-16T00:15:07.557Z,16.77
2023-03-16T00:18:12.126Z,16.70
2023-03-16T00:21:15.923Z,16.56
2023-03-16T00:24:22.214Z,16.41
2023-03-16T00:27:27.003Z,16.26
2023-03-16T00:30:33.114Z,16.06
2023-03-16T00:33:36.656Z,15.94
2023-03-16T00:36:40.357Z,16.01
2023-03-16T00:39:44.413Z,15.72
2023-03-16T00:42:47.775Z,15.53
2023-03-16T00:45:52.985Z,15.39
2023-03-16T00:48:56.471Z,15.33
2023-03-16T00:51:59.684Z,15.14
2023-03-16T00:55:03.017Z,14.66
2023-03-16T00:58:06.304Z,14.95
2023-03-16T01:01:23.125Z,14.84
2023-03-16T01:04:26.358Z,14.53
2023-03-16T01:07:29.676Z,14.53
2023-03-16T01:10:32.870Z,14.60
2023-03-16T01:13:36.180Z,14.47
2023-03-16T01:16:39.530Z,14.39
2023-03-16T01:19:44.971Z,14.30
2023-03-16T01:22:48.607Z,14.38
2023-03-16T01:25:51.932Z,14.21
2023-03-16T01:28:55.342Z,13.96
2023-03-16T01:31:58.696Z,13.59
2023-03-16T01:35:01.983Z,13.66
2023-03-16T01:38:05.547Z,13.78
2023-03-16T01:41:09.164Z,13.58
2023-03-16T01:44:20.729Z,13.66
2023-03-16T01:47:24.003Z,13.43
2023-03-16T01:50:29.981Z,13.32
2023-03-16T01:53:33.371Z,13.56
2023-03-16T01:56:43.351Z,13.28
2023-03-16T01:59:54.323Z,13.33
2023-03-16T02:03:01.050Z,13.01
2023-03-16T02:06:09.489Z,13.27
2023-03-16T02:09:13.929Z,13.29
2023-03-16T02:12:17.738Z,13.28
2023-03-16T02:15:21.264Z,13.20
2023-03-16T02:18:24.598Z,12.96
2023-03-16T02:21:47.553Z,13.10
2023-03-16T02:24:51.295Z,13.16
2023-03-16T02:27:54.668Z,13.28
2023-03-16T02:30:58.465Z,13.21
2023-03-16T02:34:02.319Z,13.21
2023-03-16T02:37:06.203Z,13.39
2023-03-16T02:40:26.759Z,13.49
2023-03-16T02:43:33.555Z,12.68
2023-03-16T02:46:37.168Z,12.57
2023-03-16T02:49:45.540Z,12.86
2023-03-16T02:52:48.917Z,13.02
2023-03-16T02:55:54.481Z,13.04
2023-03-16T02:58:57.763Z,13.28
2023-03-16T03:02:01.244Z,13.24
2023-03-16T03:05:04.733Z,13.38
2023-03-16T03:08:09.436Z,13.35
2023-03-16T03:11:12.745Z,13.22
2023-03-16T03:14:16.026Z,13.12
2023-03-16T03:17:19.277Z,13.05
2023-03-16T03:20:22.706Z,13.12
2023-03-16T03:23:26.163Z,13.12
2023-03-16T03:26:32.890Z,12.95
2023-03-16T03:29:36.192Z,12.89
2023-03-16T03:32:40.478Z,13.14
2023-03-16T03:35:46.785Z,13.23
2023-03-16T03:38:50.144Z,13.11
2023-03-16T03:41:53.326Z,13.05
2023-03-16T03:44:58.764Z,12.57
2023-03-16T03:48:04.305Z,12.41
2023-03-16T03:51:07.669Z,12.27
2023-03-16T03:54:11.392Z,12.46
2023-03-16T03:57:14.653Z,12.90
2023-03-16T04:00:19.777Z,13.18
2023-03-16T04:03:24.167Z,13.06
2023-03-16T04:06:27.585Z,12.66
2023-03-16T04:09:31.148Z,12.48
2023-03-16T04:12:36.154Z,12.50
2023-03-16T04:15:39.429Z,12.66
2023-03-16T04:18:43.033Z,12.59
2023-03-16T04:21:46.667Z,12.70
2023-03-16T04:24:49.943Z,12.78
2023-03-16T04:27:53.637Z,12.61
2023-03-16T04:30:56.972Z,12.36
2023-03-16T04:34:00.465Z,12.50
2023-03-16T04:37:04.530Z,12.18
2023-03-16T04:40:10.811Z,11.97
2023-03-16T04:43:17.157Z,11.76
2023-03-16T04:46:20.538Z,11.74
2023-03-16T04:49:24.017Z,11.82
2023-03-16T04:52:27.297Z,11.74
2023-03-16T04:55:33.494Z,11.49
2023-03-16T04:58:36.686Z,11.67
2023-03-16T05:01:40.052Z,11.19
2023-03-16T05:04:43.332Z,10.96
2023-03-16T05:07:48.490Z,11.26
2023-03-16T05:10:51.746Z,11.26
2023-03-16T05:13:55.172Z,11.34
2023-03-16T05:16:58.798Z,11.31
2023-03-16T05:20:02.652Z,11.46
2023-03-16T05:23:05.877Z,11.39
2023-03-16T05:26:09.167Z,11.35
2023-03-16T05:29:12.383Z,11.27
2023-03-16T05:32:15.678Z,11.28
2023-03-16T05:35:19.093Z,11.05
2023-03-16T05:38:22.697Z,10.63
2023-03-16T05:41:25.909Z,10.48
2023-03-16T05:44:29.080Z,10.84
2023-03-16T05:47:33.513Z,10.71
2023-03-16T05:50:39.256Z,10.67
2023-03-16T05:53:42.463Z,10.78
2023-03-16T05:56:45.751Z,10.59
2023-03-16T05:59:49.015Z,10.54
2023-03-16T06:02:52.941Z,10.49
2023-03-16T06:05:56.159Z,10.32
2023-03-16T06:08:59.427Z,10.29
2023-03-16T06:12:02.579Z,10.18
2023-03-16T06:15:06.750Z,10.09
2023-03-16T06:18:09.940Z,9.94
2023-03-16T06:21:15.463Z,10.12
2023-03-16T06:24:19.349Z,10.32
2023-03-16T06:27:22.621Z,10.50
2023-03-16T06:30:26.279Z,10.24
2023-03-16T06:33:29.798Z,10.57
2023-03-16T06:36:33.047Z,10.77
2023-03-16T06:39:36.294Z,10.82
2023-03-16T06:42:39.525Z,10.83
2023-03-16T06:45:44.214Z,10.85
2023-03-16T06:48:47.575Z,10.86
2023-03-16T06:51:50.849Z,10.86
2023-03-16T06:54:54.067Z,10.64
2023-03-16T06:57:58.482Z,10.16
2023-03-16T07:01:05.329Z,10.25
2023-03-16T07:04:08.637Z,10.40
2023-03-16T07:07:12.685Z,10.22
2023-03-16T07:10:18.047Z,10.45
2023-03-16T07:13:22.590Z,10.43
2023-03-16T07:16:26.034Z,10.46
2023-03-16T07:19:30.068Z,10.64
2023-03-16T07:22:34.061Z,10.61
2023-03-16T07:25:37.544Z,10.21
2023-03-16T07:28:40.909Z,10.34
2023-03-16T07:31:46.585Z,10.59
2023-03-16T07:34:50.399Z,10.65
2023-03-16T07:37:53.626Z,10.13
2023-03-16T07:40:56.984Z,10.33
2023-03-16T07:44:00.222Z,10.78
2023-03-16T07:47:03.473Z,10.92
2023-03-16T07:50:07.374Z,11.05
2023-03-16T07:53:11.396Z,11.10
2023-03-16T07:56:14.644Z,10.96
2023-03-16T07:59:20.462Z,11.04
2023-03-16T08:02:24.279Z,11.19
2023-03-16T08:05:27.976Z,11.29
2023-03-16T08:08:31.291Z,11.05
2023-03-16T08:11:34.607Z,10.77
2023-03-16T08:14:38.267Z,10.86
2023-03-16T08:17:41.556Z,10.99
2023-03-16T08:20:45.365Z,10.63
2023-03-16T08:23:48.720Z,10.86
2023-03-16T08:26:51.994Z,10.98
2023-03-16T08:29:55.266Z,11.09
2023-03-16T08:32:58.502Z,11.19
2023-03-16T08:36:01.839Z,11.15
2023-03-16T08:39:07.726Z,11.25
2023-03-16T08:42:11.653Z,11.13
2023-03-16T08:45:14.811Z,11.02
2023-03-16T08:48:18.039Z,11.09
2023-03-16T08:51:21.211Z,11.52
2023-03-16T08:54:24.428Z,11.67
2023-03-16T08:57:27.686Z,11.51
2023-03-16T09:00:31.341Z,11.51
2023-03-16T09:03:35.882Z,11.55
2023-03-16T09:06:39.172Z,11.52
2023-03-16T09:09:42.609Z,11.73
2023-03-16T09:12:46.396Z,11.58
2023-03-16T09:15:49.683Z,11.45
2023-03-16T09:18:54.072Z,11.70
2023-03-16T09:21:57.404Z,11.56
2023-03-16T09:25:01.729Z,11.56
2023-03-16T09:28:04.956Z,11.50
2023-03-16T09:31:08.522Z,11.47
2023-03-16T09:34:11.987Z,11.52
2023-03-16T09:37:15.280Z,11.45
2023-03-16T09:40:32.671Z,11.54
2023-03-16T09:43:44.051Z,11.45
2023-03-16T09:46:49.320Z,11.64
2023-03-16T09:49:52.856Z,11.57
2023-03-16T09:53:14.555Z,11.60
2023-03-16T09:56:32.853Z,11.30
2023-03-16T09:59:36.203Z,11.46
2023-03-16T10:02:52.886Z,11.36
2023-03-16T10:06:02.755Z,11.16
2023-03-16T10:09:31.220Z,11.33
2023-03-16T10:12:39.251Z,11.39
2023-03-16T10:15:42.660Z,11.44
2023-03-16T10:18:48.214Z,11.63
2023-03-16T10:21:57.059Z,11.28
2023-03-16T10:25:05.970Z,11.43
2023-03-16T10:28:19.390Z,11.49
2023-03-16T10:31:24.529Z,11.47
2023-03-16T10:34:27.804Z,11.55
2023-03-16T10:37:34.902Z,11.55
2023-03-16T10:40:39.637Z,11.67
2023-03-16T10:43:43.971Z,11.61
2023-03-16T10:46:50.707Z,11.67
2023-03-16T10:49:54.045Z,11.54
2023-03-16T10:52:58.242Z,11.58
2023-03-16T10:56:10.094Z,11.65
2023-03-16T10:59:26.694Z,11.53
2023-03-16T11:02:35.069Z,11.51
2023-03-16T11:05:38.359Z,11.62
2023-03-16T11:08:41.609Z,11.64
2023-03-16T11:11:51.212Z,11.33
2023-03-16T11:14:54.452Z,11.43
2023-03-16T11:17:57.984Z,11.35
2023-03-16T11:21:09.349Z,11.59
2023-03-16T11:24:53.926Z,11.51
2023-03-16T11:28:26.067Z,11.44
2023-03-16T11:31:47.324Z,11.54
2023-03-16T11:34:50.811Z,11.44
2023-03-16T11:38:20.144Z,11.47
2023-03-16T11:41:43.154Z,11.59
2023-03-16T11:45:29.002Z,11.56
2023-03-16T11:48:56.549Z,11.54
2023-03-16T11:52:22.930Z,11.62
2023-03-16T11:56:03.147Z,11.64
2023-03-16T11:59:37.839Z,11.54
2023-03-16T12:03:01.161Z,11.54
2023-03-16T12:06:39.289Z,11.58
2023-03-16T12:09:51.297Z,11.67
2023-03-16T12:13:12.162Z,11.78
2023-03-16T12:16:39.099Z,11.76
2023-03-16T12:20:03.702Z,11.76
2023-03-16T12:23:14.149Z,11.74
2023-03-16T12:26:19.196Z,11.74
2023-03-16T12:29:32.694Z,11.61
2023-03-16T12:32:38.788Z,11.67
2023-03-16T12:35:55.136Z,11.72
2023-03-16T12:39:07.840Z,11.71
2023-03-16T12:42:29.137Z,11.57
2023-03-16T12:45:37.993Z,11.53
2023-03-16T12:48:57.012Z,11.68
2023-03-16T12:52:11.769Z,11.76
2023-03-16T12:55:18.258Z,11.99
2023-03-16T12:58:24.612Z,11.99
2023-03-16T13:01:30.604Z,12.05
2023-03-16T13:04:37.065Z,11.96
2023-03-16T13:07:48.558Z,12.08
2023-03-16T13:11:26.532Z,12.26
2023-03-16T13:14:41.362Z,12.26
2023-03-16T13:17:44.855Z,12.27
2023-03-16T13:20:56.643Z,12.22
2023-03-16T13:24:21.367Z,12.32
2023-03-16T13:27:30.217Z,12.49
2023-03-16T13:30:35.317Z,12.70
2023-03-16T13:33:38.855Z,12.48
2023-03-16T13:36:45.182Z,12.59
2023-03-16T13:39:59.568Z,12.66
2023-03-16T13:43:04.765Z,12.91
2023-03-16T13:46:20.564Z,12.94
2023-03-16T13:49:24.144Z,13.07
2023-03-16T13:52:34.823Z,13.22
2023-03-16T13:55:41.350Z,13.17
2023-03-16T13:58:48.186Z,13.31
2023-03-16T14:01:59.503Z,13.49
2023-03-16T14:05:11.540Z,13.58
2023-03-16T14:08:23.525Z,13.65
2023-03-16T14:11:27.858Z,13.82
2023-03-16T14:14:33.151Z,13.87
2023-03-16T14:17:36.537Z,14.22
2023-03-16T14:20:41.735Z,14.24
2023-03-16T14:23:47.309Z,14.45
2023-03-16T14:26:50.569Z,14.44
2023-03-16T14:30:00.559Z,14.71
2023-03-16T14:33:05.876Z,14.80
2023-03-16T14:36:16.352Z,14.75
2023-03-16T14:39:23.168Z,14.98
2023-03-16T14:42:30.187Z,15.00
2023-03-16T14:45:35.191Z,15.19
2023-03-16T14:48:38.872Z,15.16
2023-03-16T14:51:42.295Z,15.35
2023-03-16T14:54:45.477Z,15.46
2023-03-16T14:57:50.983Z,15.75
2023-03-16T15:00:55.241Z,15.81
2023-03-16T15:03:58.514Z,15.71
2023-03-16T15:07:04.980Z,15.97
2023-03-16T15:10:09.955Z,15.81
2023-03-16T15:13:20.598Z,15.85
2023-03-16T15:16:23.922Z,15.92
2023-03-16T15:19:27.294Z,16.13
2023-03-16T15:22:36.647Z,16.46
2023-03-16T15:25:41.976Z,16.21
2023-03-16T15:28:45.451Z,16.21
2023-03-16T15:31:49.312Z,16.61
2023-03-16T15:34:52.592Z,16.58
2023-03-16T15:37:55.986Z,16.78
2023-03-16T15:40:59.649Z,16.86
2023-03-16T15:44:02.817Z,16.34
2023-03-16T15:47:06.309Z,16.90
2023-03-16T15:50:14.622Z,17.28
2023-03-16T15:53:35.618Z,17.32
2023-03-16T15:56:53.269Z,17.50
2023-03-16T15:59:57.562Z,17.72
2023-03-16T16:03:03.937Z,17.94
2023-03-16T16:06:11.333Z,17.91
2023-03-16T16:09:15.228Z,18.03
2023-03-16T16:12:19.152Z,17.97
2023-03-16T16:15:27.543Z,18.26
2023-03-16T16:18:35.576Z,17.99
2023-03-16T16:21:38.886Z,18.14
2023-03-16T16:24:42.216Z,18.32
2023-03-16T16:27:45.875Z,18.48
2023-03-16T16:30:49.246Z,18.30
2023-03-16T16:33:52.686Z,18.25
2023-03-16T16:36:57.108Z,18.20
2023-03-16T16:40:00.664Z,18.45
2023-03-16T16:43:06.068Z,18.92
2023-03-16T16:46:18.317Z,18.93
2023-03-16T16:49:29.643Z,18.57
2023-03-16T16:52:32.910Z,18.99
2023-03-16T16:55:36.276Z,18.86
2023-03-16T16:58:39.483Z,18.73
2023-03-16T17:01:42.889Z,18.81
2023-03-16T17:04:46.081Z,19.01
2023-03-16T17:07:50.135Z,19.45
2023-03-16T17:10:54.182Z,19.06
2023-03-16T17:13:59.495Z,19.37
2023-03-16T17:17:03.693Z,19.50
2023-03-16T17:20:16.320Z,19.40
2023-03-16T17:23:34.278Z,20.07
2023-03-16T17:26:43.953Z,20.63
2023-03-16T17:29:47.226Z,20.63
2023-03-16T17:32:52.116Z,20.79
2023-03-16T17:35:55.516Z,21.03
2023-03-16T17:38:59.880Z,20.44
2023-03-16T17:42:21.783Z,20.63
2023-03-16T17:45:29.035Z,20.40
2023-03-16T17:48:32.383Z,20.75
2023-03-16T17:51:38.554Z,20.94
2023-03-16T17:54:46.544Z,20.60
2023-03-16T17:57:51.097Z,20.77
2023-03-16T18:00:57.706Z,20.86
2023-03-16T18:04:02.007Z,21.16
2023-03-16T18:07:08.950Z,21.22
2023-03-16T18:10:15.070Z,21.62
2023-03-16T18:13:21.073Z,21.88
2023-03-16T18:16:26.071Z,21.63
2023-03-16T18:19:30.391Z,21.46
2023-03-16T18:22:33.686Z,21.52
2023-03-16T18:25:38.730Z,21.85
2023-03-16T18:28:42.143Z,21.73
2023-03-16T18:31:49.033Z,21.33
2023-03-16T18:34:52.214Z,21.50
2023-03-16T18:37:58.549Z,21.39
2023-03-16T18:41:04.143Z,21.35
2023-03-16T18:44:23.191Z,21.49
2023-03-16T18:47:27.792Z,21.36
2023-03-16T18:50:30.942Z,21.49
2023-03-16T18:53:34.334Z,21.53
2023-03-16T18:56:37.653Z,21.31
2023-03-16T18:59:41.010Z,21.50
2023-03-16T19:02:45.165Z,21.58
2023-03-16T19:05:48.529Z,21.66
2023-03-16T19:08:52.672Z,21.65
2023-03-16T19:11:56.158Z,21.78
2023-03-16T19:14:59.607Z,21.94
2023-03-16T19:18:02.889Z,22.10
2023-03-16T19:21:06.368Z,22.13
2023-03-16T19:24:19.303Z,22.13
2023-03-16T19:27:25.539Z,22.43
2023-03-16T19:30:30.430Z,22.73
2023-03-16T19:33:34.215Z,22.62
2023-03-16T19:36:37.550Z,22.35
2023-03-16T19:39:40.916Z,22.16
2023-03-16T19:42:44.655Z,22.26
2023-03-16T19:45:48.507Z,22.15
2023-03-16T19:48:51.758Z,21.94
2023-03-16T19:51:57.093Z,22.00
2023-03-16T19:55:00.390Z,22.24
2023-03-16T19:58:05.069Z,22.01
2023-03-16T20:01:21.413Z,22.07
2023-03-16T20:04:26.826Z,21.94
2023-03-16T20:07:30.509Z,21.92
2023-03-16T20:10:33.734Z,22.08
2023-03-16T20:13:37.021Z,22.12
2023-03-16T20:16:40.292Z,22.04
2023-03-16T20:19:43.514Z,22.20
2023-03-16T20:22:46.817Z,22.04
2023-03-16T20:25:51.689Z,21.87
2023-03-16T20:28:55.016Z,21.83
2023-03-16T20:31:58.868Z,21.79
2023-03-16T20:35:02.189Z,21.90
2023-03-16T20:38:09.631Z,21.85
2023-03-16T20:41:15.508Z,22.00
2023-03-16T20:44:20.524Z,21.99
2023-03-16T20:47:24.994Z,22.20
2023-03-16T20:50:33.031Z,22.10
2023-03-16T20:53:37.302Z,22.27
2023-03-16T20:56:40.556Z,22.09
2023-03-16T20:59:44.252Z,22.20
2023-03-16T21:02:47.620Z,22.16
2023-03-16T21:05:52.141Z,22.26
2023-03-16T21:08:57.483Z,22.23
2023-03-16T21:12:00.750Z,22.19
2023-03-16T21:15:15.549Z,22.17
2023-03-16T21:18:21.100Z,22.12
2023-03-16T21:21:24.716Z,22.02
2023-03-16T21:24:27.916Z,22.04
2023-03-16T21:27:38.324Z,21.99
2023-03-16T21:30:46.043Z,21.92
2023-03-16T21:33:50.022Z,22.00
2023-03-16T21:36:53.626Z,21.98
2023-03-16T21:39:56.909Z,21.93
2023-03-16T21:43:00.212Z,21.95
2023-03-16T21:46:04.153Z,21.92
2023-03-16T21:49:11.359Z,21.99
2023-03-16T21:52:32.728Z,21.96
2023-03-16T21:55:36.018Z,21.90
2023-03-16T21:58:39.527Z,22.04
2023-03-16T22:01:58.228Z,21.96
2023-03-16T22:05:06.905Z,21.99
2023-03-16T22:08:22.178Z,21.89
2023-03-16T22:11:27.757Z,21.75
2023-03-16T22:14:30.964Z,21.79
2023-03-16T22:17:34.848Z,21.87
2023-03-16T22:20:40.578Z,21.81
2023-03-16T22:23:45.106Z,21.66
2023-03-16T22:26:48.665Z,21.74
2023-03-16T22:29:52.088Z,21.84
2023-03-16T22:33:01.636Z,21.81
2023-03-16T22:36:16.357Z,21.77
2023-03-16T22:39:20.219Z,21.70
2023-03-16T22:42:38.042Z,21.51
2023-03-16T22:45:41.577Z,21.61
2023-03-16T22:48:44.902Z,21.37
2023-03-16T22:51:48.347Z,21.25
2023-03-16T22:54:51.657Z,21.36
2023-03-16T22:58:06.638Z,21.58
2023-03-16T23:01:18.920Z,21.42
2023-03-16T23:04:25.219Z,21.48
2023-03-16T23:07:28.545Z,21.49
2023-03-16T23:10:32.144Z,21.31
2023-03-16T23:13:35.399Z,21.39
2023-03-16T23:16:41.786Z,21.38
2023-03-16T23:19:45.285Z,21.42
2023-03-16T23:22:50.904Z,21.36
2023-03-16T23:25:54.154Z,21.20
2023-03-16T23:29:00.175Z,21.08
2023-03-16T23:32:03.536Z,21.15
2023-03-16T23:35:14.730Z,21.15
2023-03-16T23:38:18.037Z,21.07
2023-03-16T23:41:23.566Z,20.98
2023-03-16T23:44:29.262Z,21.04
2023-03-16T23:47:32.450Z,20.99
2023-03-16T23:50:37.305Z,21.04
2023-03-16T23:53:40.669Z,21.05
2023-03-16T23:56:44.047Z,21.13
2023-03-16T23:59:47.334Z,21.15
